Time;durP1;ratioP1;P1;durP2;ratioP2;P2;SDS_P1;SDS_P2;PMS_P1;PMS_P2;Temp;Humidity;BMP_temperature;BMP_pressure;BME280_temperature;BME280_humidity;BME280_pressure;Samples;Min_cycle;Max_cycle;Signal;HPM_P1;HPM_P2
2022/06/14 00:03:12;;;;;;;2.05;1.35;;;;;;;;;;5030337;28;20166;-56
2022/06/14 00:05:38;;;;;;;3.17;1.10;;;;;;;;;;5031413;28;20404;-54
2022/06/14 00:08:04;;;;;;;2.53;0.90;;;;;;;;;;5032832;28;20584;-54
2022/06/14 00:10:30;;;;;;;3.33;1.10;;;;;;;;;;5031654;28;20584;-55
2022/06/14 00:12:56;;;;;;;4.55;1.30;;;;;;;;;;5031780;28;20100;-55
2022/06/14 00:15:22;;;;;;;3.70;1.60;;;;;;;;;;5032784;28;20420;-53
2022/06/14 00:17:48;;;;;;;2.17;1.00;;;;;;;;;;5031208;28;20051;-54
2022/06/14 00:20:15;;;;;;;3.83;1.42;;;;;;;;;;5031341;28;20033;-54
2022/06/14 00:22:41;;;;;;;3.10;1.10;;;;;;;;;;5029475;28;20033;-52
2022/06/14 00:25:07;;;;;;;3.83;1.00;;;;;;;;;;5032859;28;20108;-55
2022/06/14 00:27:33;;;;;;;3.80;1.27;;;;;;;;;;5032345;28;20038;-53
2022/06/14 00:29:59;;;;;;;4.25;1.20;;;;;;;;;;5031837;28;20045;-54
2022/06/14 00:32:25;;;;;;;2.92;1.25;;;;;;;;;;5029638;28;20080;-54
2022/06/14 00:34:51;;;;;;;2.97;1.45;;;;;;;;;;5031515;28;20491;-54
2022/06/14 00:37:19;;;;;;;4.18;1.60;;;;;;;;;;5029750;28;20026;-54
2022/06/14 00:39:45;;;;;;;4.20;1.08;;;;;;;;;;5030472;28;20021;-53
2022/06/14 00:42:21;;;;;;;3.72;1.83;;;;;;;;;;5030575;28;20032;-54
2022/06/14 00:45:05;;;;;;;2.97;1.25;;;;;;;;;;5030945;28;20036;-51
2022/06/14 00:47:37;;;;;;;4.82;1.30;;;;;;;;;;5030458;28;20068;-55
2022/06/14 00:50:05;;;;;;;7.07;1.45;;;;;;;;;;5030292;28;20150;-54
2022/06/14 00:52:35;;;;;;;4.88;1.63;;;;;;;;;;5027861;28;20112;-55
2022/06/14 00:55:05;;;;;;;4.28;1.33;;;;;;;;;;5030901;28;20457;-55
2022/06/14 00:57:34;;;;;;;6.63;1.42;;;;;;;;;;5030286;28;20041;-53
2022/06/14 01:00:12;;;;;;;6.20;1.40;;;;;;;;;;5026772;28;20031;-53
2022/06/14 01:02:41;;;;;;;7.32;1.48;;;;;;;;;;5029949;28;20031;-53
2022/06/14 01:05:10;;;;;;;2.67;1.05;;;;;;;;;;5031284;28;20433;-54
2022/06/14 01:07:38;;;;;;;3.63;1.65;;;;;;;;;;5029221;28;20037;-55
2022/06/14 01:10:08;;;;;;;4.55;1.40;;;;;;;;;;5028623;28;20132;-55
2022/06/14 01:12:36;;;;;;;3.85;1.55;;;;;;;;;;5031103;28;20037;-51
2022/06/14 01:15:05;;;;;;;3.40;1.25;;;;;;;;;;5032082;28;20044;-54
2022/06/14 01:17:33;;;;;;;5.70;1.30;;;;;;;;;;5030357;28;20040;-52
2022/06/14 01:19:59;;;;;;;3.55;1.38;;;;;;;;;;5028584;28;20034;-55
2022/06/14 01:22:27;;;;;;;3.35;1.50;;;;;;;;;;5031322;28;20404;-54
2022/06/14 01:24:53;;;;;;;3.90;1.30;;;;;;;;;;5030016;28;20029;-54
2022/06/14 01:27:20;;;;;;;4.82;1.45;;;;;;;;;;5030759;28;20484;-54
2022/06/14 01:29:50;;;;;;;6.90;1.55;;;;;;;;;;5031492;28;20118;-56
2022/06/14 01:32:17;;;;;;;5.28;2.25;;;;;;;;;;5030304;28;20026;-53
2022/06/14 01:34:45;;;;;;;4.90;1.48;;;;;;;;;;5038144;28;20029;-53
2022/06/14 01:37:11;;;;;;;3.78;1.10;;;;;;;;;;5029251;28;20476;-54
2022/06/14 01:39:37;;;;;;;5.18;1.60;;;;;;;;;;5028762;28;20038;-53
2022/06/14 01:42:39;;;;;;;5.30;1.50;;;;;;;;;;5028720;28;20037;-56
2022/06/14 01:45:18;;;;;;;5.57;1.42;;;;;;;;;;5009489;28;20496;-55
2022/06/14 01:47:50;;;;;;;3.58;1.33;;;;;;;;;;5025509;28;20488;-53
2022/06/14 01:53:34;;;;;;;4.13;1.47;;;;;;;;;;5025968;28;20084;-56
2022/06/14 01:56:09;;;;;;;5.82;1.30;;;;;;;;;;5028733;28;20098;-54
2022/06/14 01:58:44;;;;;;;4.57;1.55;;;;;;;;;;5031124;28;20029;-54
2022/06/14 02:01:16;;;;;;;3.95;1.30;;;;;;;;;;5023937;28;20029;-54
2022/06/14 02:06:33;;;;;;;4.22;1.63;;;;;;;;;;5028844;28;20103;-57
2022/06/14 02:09:06;;;;;;;4.85;1.30;;;;;;;;;;5029414;28;20596;-56
2022/06/14 02:11:33;;;;;;;5.70;1.30;;;;;;;;;;5033786;28;20025;-55
2022/06/14 02:14:12;;;;;;;2.88;1.40;;;;;;;;;;5029226;28;20037;-55
2022/06/14 02:16:43;;;;;;;3.85;1.90;;;;;;;;;;5030219;28;20064;-56
2022/06/14 02:19:12;;;;;;;4.57;1.52;;;;;;;;;;5029982;28;20041;-53
2022/06/14 02:21:43;;;;;;;6.18;1.67;;;;;;;;;;5029850;28;20490;-54
2022/06/14 02:24:18;;;;;;;6.30;1.70;;;;;;;;;;5030059;28;20028;-53
2022/06/14 02:26:49;;;;;;;2.58;1.30;;;;;;;;;;5027351;28;20030;-55
2022/06/14 02:29:21;;;;;;;3.10;1.40;;;;;;;;;;5029933;28;20028;-55
2022/06/14 02:31:55;;;;;;;4.65;1.63;;;;;;;;;;5029044;28;20048;-54
2022/06/14 02:34:28;;;;;;;7.95;1.90;;;;;;;;;;5030814;28;20025;-54
2022/06/14 02:36:58;;;;;;;4.78;1.30;;;;;;;;;;5028679;28;20547;-54
2022/06/14 02:39:27;;;;;;;7.45;1.40;;;;;;;;;;5030628;28;20026;-55
2022/06/14 02:42:00;;;;;;;4.15;1.50;;;;;;;;;;5026594;28;20063;-55
2022/06/14 02:44:44;;;;;;;3.22;1.35;;;;;;;;;;5028888;28;20079;-56
2022/06/14 02:47:15;;;;;;;3.08;1.63;;;;;;;;;;5029391;28;20510;-56
2022/06/14 02:49:45;;;;;;;2.75;1.45;;;;;;;;;;5030981;28;20032;-54
2022/06/14 02:52:34;;;;;;;11.82;1.70;;;;;;;;;;5028954;28;20032;-54
2022/06/14 02:55:07;;;;;;;3.35;1.58;;;;;;;;;;5027234;28;20376;-56
2022/06/14 02:57:44;;;;;;;5.03;1.80;;;;;;;;;;5028092;28;20527;-54
2022/06/14 03:00:14;;;;;;;4.07;1.48;;;;;;;;;;5029826;28;20021;-53
2022/06/14 03:02:44;;;;;;;8.55;1.80;;;;;;;;;;5034296;28;20025;-53
2022/06/14 03:05:22;;;;;;;6.07;1.50;;;;;;;;;;5030014;28;20035;-56
2022/06/14 03:08:00;;;;;;;3.20;1.65;;;;;;;;;;5029030;28;20037;-55
2022/06/14 03:10:32;;;;;;;3.63;1.60;;;;;;;;;;5028936;28;20041;-54
2022/06/14 03:13:15;;;;;;;4.50;1.70;;;;;;;;;;5033165;28;20037;-55
2022/06/14 03:15:48;;;;;;;3.30;1.35;;;;;;;;;;5025633;28;20043;-56
2022/06/14 03:18:14;;;;;;;5.05;1.70;;;;;;;;;;5034424;28;20041;-54
2022/06/14 03:21:06;;;;;;;3.45;1.70;;;;;;;;;;5028820;28;20037;-55
2022/06/14 03:23:35;;;;;;;6.78;2.67;;;;;;;;;;5027596;28;20561;-53
2022/06/14 03:26:21;;;;;;;3.42;1.80;;;;;;;;;;5033242;28;20029;-55
2022/06/14 03:28:51;;;;;;;3.55;1.60;;;;;;;;;;5046783;28;20041;-55
2022/06/14 03:31:23;;;;;;;5.43;1.83;;;;;;;;;;5032586;28;20029;-54
2022/06/14 03:34:09;;;;;;;4.68;1.80;;;;;;;;;;5031086;28;20116;-54
2022/06/14 03:36:36;;;;;;;9.20;1.65;;;;;;;;;;5029649;28;20048;-55
2022/06/14 03:39:11;;;;;;;3.50;1.80;;;;;;;;;;5033974;28;20021;-57
2022/06/14 03:41:39;;;;;;;4.22;1.48;;;;;;;;;;5033761;28;20473;-56
2022/06/14 03:44:05;;;;;;;4.28;1.95;;;;;;;;;;5033363;28;20492;-55
2022/06/14 03:46:39;;;;;;;4.03;1.58;;;;;;;;;;5032127;28;20025;-56
2022/06/14 03:49:16;;;;;;;6.60;2.38;;;;;;;;;;5038655;28;20132;-52
2022/06/14 03:51:52;;;;;;;9.05;2.03;;;;;;;;;;5029791;28;20033;-57
2022/06/14 03:54:37;;;;;;;4.97;1.92;;;;;;;;;;5031886;28;20096;-55
2022/06/14 03:57:11;;;;;;;5.22;2.25;;;;;;;;;;5033178;28;20068;-55
2022/06/14 04:00:02;;;;;;;5.25;1.98;;;;;;;;;;5033288;28;20362;-56
2022/06/14 04:02:54;;;;;;;6.10;1.83;;;;;;;;;;5034713;28;20495;-56
2022/06/14 04:05:34;;;;;;;5.95;1.75;;;;;;;;;;5022807;28;20022;-56
2022/06/14 04:08:07;;;;;;;9.77;2.22;;;;;;;;;;5031086;28;20025;-55
2022/06/14 04:10:52;;;;;;;6.93;1.90;;;;;;;;;;5030491;28;20029;-56
2022/06/14 04:13:26;;;;;;;4.70;1.80;;;;;;;;;;5031812;28;20039;-53
2022/06/14 04:15:52;;;;;;;11.40;2.30;;;;;;;;;;5030701;28;20032;-54
2022/06/14 04:18:36;;;;;;;8.82;2.80;;;;;;;;;;5031446;28;20029;-55
2022/06/14 04:21:20;;;;;;;5.78;1.95;;;;;;;;;;5030450;28;20075;-55
2022/06/14 04:23:49;;;;;;;6.82;2.22;;;;;;;;;;5031552;28;20469;-55
2022/06/14 04:26:19;;;;;;;4.93;2.00;;;;;;;;;;5028851;28;20036;-55
2022/06/14 04:28:50;;;;;;;9.52;2.67;;;;;;;;;;5040882;28;20034;-56
2022/06/14 04:31:35;;;;;;;8.02;2.25;;;;;;;;;;5032427;28;20477;-55
2022/06/14 04:34:19;;;;;;;8.73;2.15;;;;;;;;;;5033670;28;20029;-54
2022/06/14 04:36:56;;;;;;;5.18;2.05;;;;;;;;;;5030141;28;20504;-56
2022/06/14 04:39:31;;;;;;;6.70;1.83;;;;;;;;;;5032429;28;20036;-55
2022/06/14 04:42:02;;;;;;;6.43;2.03;;;;;;;;;;5030435;28;20033;-55
2022/06/14 04:44:35;;;;;;;9.23;2.58;;;;;;;;;;5038937;28;20036;-55
2022/06/14 04:47:16;;;;;;;4.93;1.75;;;;;;;;;;5032745;28;20036;-55
2022/06/14 04:49:45;;;;;;;9.60;1.98;;;;;;;;;;5032865;28;20507;-54
2022/06/14 04:52:14;;;;;;;5.03;1.63;;;;;;;;;;5030544;28;20108;-54
2022/06/14 04:54:55;;;;;;;5.40;2.17;;;;;;;;;;5034934;28;20107;-55
2022/06/14 04:57:31;;;;;;;7.82;2.08;;;;;;;;;;5027096;28;20057;-54
2022/06/14 05:00:01;;;;;;;7.53;2.00;;;;;;;;;;5030951;28;20033;-55
2022/06/14 05:02:36;;;;;;;6.55;2.05;;;;;;;;;;5029741;28;20026;-56
2022/06/14 05:05:22;;;;;;;6.40;2.15;;;;;;;;;;5033200;28;20026;-54
2022/06/14 05:08:00;;;;;;;8.18;2.15;;;;;;;;;;5029324;28;20041;-52
2022/06/14 05:10:31;;;;;;;7.25;1.75;;;;;;;;;;5040278;28;20065;-54
2022/06/14 05:13:01;;;;;;;3.67;1.50;;;;;;;;;;5029731;28;20041;-55
2022/06/14 05:15:36;;;;;;;5.85;2.13;;;;;;;;;;5021056;28;20025;-55
2022/06/14 05:18:10;;;;;;;4.75;2.13;;;;;;;;;;5029688;28;20038;-54
2022/06/14 05:20:43;;;;;;;6.30;2.10;;;;;;;;;;5031917;28;20554;-55
2022/06/14 05:23:12;;;;;;;4.45;1.15;;;;;;;;;;5031906;28;20562;-56
2022/06/14 05:25:46;;;;;;;8.48;1.80;;;;;;;;;;5032346;28;20500;-55
2022/06/14 05:28:13;;;;;;;3.75;1.90;;;;;;;;;;5025296;28;20036;-55
2022/06/14 05:30:45;;;;;;;13.68;2.20;;;;;;;;;;5032069;28;20108;-55
2022/06/14 05:33:14;;;;;;;9.13;1.98;;;;;;;;;;5032290;28;20116;-55
2022/06/14 05:35:43;;;;;;;11.02;2.03;;;;;;;;;;5026172;28;20408;-53
2022/06/14 05:38:17;;;;;;;8.90;2.08;;;;;;;;;;5029818;28;20124;-54
2022/06/14 05:40:52;;;;;;;3.75;1.40;;;;;;;;;;5030059;28;20026;-54
2022/06/14 05:43:26;;;;;;;11.00;1.52;;;;;;;;;;5029517;28;20040;-53
2022/06/14 05:45:54;;;;;;;5.45;1.88;;;;;;;;;;5031115;28;20035;-53
2022/06/14 05:48:24;;;;;;;7.97;1.88;;;;;;;;;;5028427;28;20104;-55
2022/06/14 05:50:53;;;;;;;5.72;1.60;;;;;;;;;;5029971;28;20037;-55
2022/06/14 05:53:24;;;;;;;7.90;1.92;;;;;;;;;;5031048;28;20034;-54
2022/06/14 05:55:56;;;;;;;8.77;1.75;;;;;;;;;;5021405;28;20049;-54
2022/06/14 05:58:26;;;;;;;3.90;1.50;;;;;;;;;;5033888;28;20025;-54
2022/06/14 06:00:54;;;;;;;8.10;1.73;;;;;;;;;;5024701;28;20032;-55
2022/06/14 06:03:35;;;;;;;6.15;1.90;;;;;;;;;;5029945;28;20022;-54
2022/06/14 06:06:06;;;;;;;11.25;2.08;;;;;;;;;;5030286;28;20041;-53
2022/06/14 06:08:38;;;;;;;7.30;2.05;;;;;;;;;;5030916;28;20516;-55
2022/06/14 06:11:10;;;;;;;5.60;2.10;;;;;;;;;;5029982;28;20021;-53
2022/06/14 06:13:40;;;;;;;7.03;1.42;;;;;;;;;;5029719;28;20121;-54
2022/06/14 06:16:13;;;;;;;8.52;1.60;;;;;;;;;;5020969;28;20469;-54
2022/06/14 06:18:42;;;;;;;7.65;1.85;;;;;;;;;;5032476;28;20033;-54
2022/06/14 06:21:11;;;;;;;6.28;1.50;;;;;;;;;;5032350;28;20040;-54
2022/06/14 06:23:41;;;;;;;5.60;1.70;;;;;;;;;;5027779;28;20029;-54
2022/06/14 06:26:07;;;;;;;10.10;1.77;;;;;;;;;;5028492;28;20047;-55
2022/06/14 06:28:35;;;;;;;7.45;1.75;;;;;;;;;;5029655;28;20033;-54
2022/06/14 06:31:06;;;;;;;12.50;2.05;;;;;;;;;;5027654;28;20032;-55
2022/06/14 06:33:37;;;;;;;6.90;1.50;;;;;;;;;;5030394;28;20033;-55
2022/06/14 06:36:08;;;;;;;8.27;1.83;;;;;;;;;;5023565;28;20022;-54
2022/06/14 06:38:41;;;;;;;6.88;1.55;;;;;;;;;;5031799;28;20483;-54
2022/06/14 06:43:55;;;;;;;5.35;1.38;;;;;;;;;;5034385;28;20124;-53
2022/06/14 06:46:22;;;;;;;10.32;1.88;;;;;;;;;;5032472;28;20037;-55
2022/06/14 06:48:52;;;;;;;11.10;1.50;;;;;;;;;;5031046;28;20479;-53
2022/06/14 06:51:21;;;;;;;14.07;1.98;;;;;;;;;;5029048;28;20500;-56
2022/06/14 06:53:50;;;;;;;6.55;1.45;;;;;;;;;;5027491;28;20041;-55
2022/06/14 06:56:19;;;;;;;5.78;1.83;;;;;;;;;;5032116;28;20049;-53
2022/06/14 06:58:48;;;;;;;7.80;1.38;;;;;;;;;;5025297;28;20262;-53
2022/06/14 07:01:17;;;;;;;8.20;1.27;;;;;;;;;;5028581;28;20021;-54
2022/06/14 07:03:46;;;;;;;7.70;1.60;;;;;;;;;;5028573;28;20028;-54
2022/06/14 07:06:15;;;;;;;9.13;1.88;;;;;;;;;;5028886;28;20072;-55
2022/06/14 07:08:44;;;;;;;7.97;2.22;;;;;;;;;;5029487;28;20017;-54
2022/06/14 07:11:13;;;;;;;8.25;1.52;;;;;;;;;;5027728;28;20078;-54
2022/06/14 07:13:45;;;;;;;7.88;1.83;;;;;;;;;;5030668;28;20148;-54
2022/06/14 07:16:17;;;;;;;7.40;1.45;;;;;;;;;;5029859;28;20111;-55
2022/06/14 07:18:45;;;;;;;6.88;1.55;;;;;;;;;;5032718;28;20078;-55
2022/06/14 07:21:16;;;;;;;12.60;1.80;;;;;;;;;;5029075;28;20465;-54
2022/06/14 07:23:45;;;;;;;12.05;1.67;;;;;;;;;;5026485;28;20029;-54
2022/06/14 07:26:20;;;;;;;6.03;1.45;;;;;;;;;;5028504;28;20033;-55
2022/06/14 07:28:53;;;;;;;9.50;1.45;;;;;;;;;;5025831;28;20525;-53
2022/06/14 07:31:44;;;;;;;11.18;1.65;;;;;;;;;;5027264;28;20040;-55
2022/06/14 07:34:10;;;;;;;7.13;1.35;;;;;;;;;;5024439;28;20086;-55
2022/06/14 07:36:41;;;;;;;10.43;1.65;;;;;;;;;;5032547;28;20033;-53
2022/06/14 07:39:15;;;;;;;8.70;1.48;;;;;;;;;;5031150;28;20072;-56
2022/06/14 07:41:48;;;;;;;8.55;1.50;;;;;;;;;;5027365;28;20028;-55
2022/06/14 07:44:21;;;;;;;7.30;1.42;;;;;;;;;;5030327;28;20080;-55
2022/06/14 07:46:57;;;;;;;4.90;1.40;;;;;;;;;;5028036;28;20905;-54
2022/06/14 07:49:29;;;;;;;5.55;1.50;;;;;;;;;;5027362;28;20034;-53
2022/06/14 07:51:58;;;;;;;7.03;1.58;;;;;;;;;;5026729;28;20030;-54
2022/06/14 07:54:28;;;;;;;5.88;1.25;;;;;;;;;;5030242;28;20059;-53
2022/06/14 07:56:56;;;;;;;5.72;1.27;;;;;;;;;;5028736;28;20029;-55
2022/06/14 07:59:25;;;;;;;5.20;1.25;;;;;;;;;;5029701;28;20044;-55
2022/06/14 08:01:55;;;;;;;8.48;1.98;;;;;;;;;;5026749;28;20033;-56
2022/06/14 08:04:25;;;;;;;5.65;1.50;;;;;;;;;;5029073;28;20037;-53
2022/06/14 08:07:11;;;;;;;8.63;1.60;;;;;;;;;;5025513;28;20032;-55
2022/06/14 08:09:56;;;;;;;3.45;1.25;;;;;;;;;;5016485;28;20393;-52
2022/06/14 08:12:27;;;;;;;2.83;1.02;;;;;;;;;;5031209;28;20516;-52
2022/06/14 08:14:56;;;;;;;9.90;1.73;;;;;;;;;;5032877;28;20956;-50
2022/06/14 08:17:43;;;;;;;3.47;1.05;;;;;;;;;;5022491;28;20033;-51
2022/06/14 08:20:24;;;;;;;8.82;1.35;;;;;;;;;;5029063;28;20541;-55
2022/06/14 08:22:53;;;;;;;7.22;1.42;;;;;;;;;;5021122;28;20025;-54
2022/06/14 08:25:22;;;;;;;7.70;1.27;;;;;;;;;;5021753;28;20030;-56
2022/06/14 08:27:58;;;;;;;8.82;1.45;;;;;;;;;;5028544;28;20075;-54
2022/06/14 08:30:27;;;;;;;6.30;1.30;;;;;;;;;;5019186;28;20024;-55
2022/06/14 08:33:19;;;;;;;8.43;1.65;;;;;;;;;;5019468;28;20453;-54
2022/06/14 08:35:53;;;;;;;6.80;1.33;;;;;;;;;;5022146;28;20056;-55
2022/06/14 08:38:29;;;;;;;7.57;1.17;;;;;;;;;;5027118;28;20090;-53
2022/06/14 08:41:06;;;;;;;10.02;1.40;;;;;;;;;;5029129;28;20386;-55
2022/06/14 08:43:37;;;;;;;5.78;1.10;;;;;;;;;;5018691;28;20466;-55
2022/06/14 08:46:30;;;;;;;5.60;1.13;;;;;;;;;;5017468;28;20548;-56
2022/06/14 08:49:08;;;;;;;3.05;1.02;;;;;;;;;;5023059;28;20018;-55
2022/06/14 08:51:53;;;;;;;5.32;1.00;;;;;;;;;;5024548;28;20377;-54
2022/06/14 08:54:26;;;;;;;5.40;1.08;;;;;;;;;;5025003;28;20129;-54
2022/06/14 08:57:04;;;;;;;7.10;1.20;;;;;;;;;;5029741;28;20036;-56
2022/06/14 08:59:42;;;;;;;6.10;1.08;;;;;;;;;;5021416;28;20389;-55
2022/06/14 09:02:19;;;;;;;5.10;1.05;;;;;;;;;;5025335;28;20025;-55
2022/06/14 09:05:02;;;;;;;5.63;0.93;;;;;;;;;;5024225;28;20021;-54
2022/06/14 09:07:31;;;;;;;2.63;0.82;;;;;;;;;;5023276;28;20035;-54
2022/06/14 09:10:03;;;;;;;8.15;1.15;;;;;;;;;;5021645;28;20025;-55
2022/06/14 09:12:29;;;;;;;4.93;1.13;;;;;;;;;;5016438;28;20033;-54
2022/06/14 09:15:07;;;;;;;4.80;1.23;;;;;;;;;;5016669;28;20386;-55
2022/06/14 09:17:46;;;;;;;4.53;1.10;;;;;;;;;;5017243;28;20702;-55
2022/06/14 09:20:23;;;;;;;5.80;1.27;;;;;;;;;;5018556;28;20473;-55
2022/06/14 09:23:01;;;;;;;12.32;1.33;;;;;;;;;;5026555;28;20026;-54
2022/06/14 09:25:54;;;;;;;4.45;1.30;;;;;;;;;;5024976;28;20385;-54
2022/06/14 09:28:30;;;;;;;5.68;1.67;;;;;;;;;;5018265;28;20121;-55
2022/06/14 09:31:16;;;;;;;3.55;1.10;;;;;;;;;;5018843;28;20044;-55
2022/06/14 09:33:59;;;;;;;7.25;1.20;;;;;;;;;;5026151;28;20022;-55
2022/06/14 09:36:25;;;;;;;;;;;;;;;;;;5028510;28;20029;-55
2022/06/14 09:39:17;;;;;;;10.82;1.15;;;;;;;;;;5030709;28;19988;-55
2022/06/14 09:42:02;;;;;;;7.53;1.15;;;;;;;;;;5030292;28;20029;-55
2022/06/14 09:44:51;;;;;;;5.22;1.10;;;;;;;;;;5027279;28;20101;-54
2022/06/14 09:47:29;;;;;;;4.70;0.90;;;;;;;;;;5044164;28;20079;-56
2022/06/14 09:50:03;;;;;;;5.22;1.25;;;;;;;;;;5016881;28;20120;-54
2022/06/14 09:52:42;;;;;;;4.35;1.00;;;;;;;;;;5020223;28;20422;-54
2022/06/14 09:55:29;;;;;;;7.65;1.33;;;;;;;;;;5032225;28;20509;-54
2022/06/14 09:57:58;;;;;;;6.63;1.10;;;;;;;;;;5036159;28;20176;-55
2022/06/14 10:00:27;;;;;;;5.85;1.40;;;;;;;;;;5031408;28;20026;-55
2022/06/14 10:03:10;;;;;;;5.63;1.17;;;;;;;;;;5027795;28;20508;-54
2022/06/14 10:05:51;;;;;;;7.17;1.40;;;;;;;;;;5024198;28;20033;-54
2022/06/14 10:08:29;;;;;;;7.70;1.20;;;;;;;;;;5024569;28;20529;-55
2022/06/14 10:11:07;;;;;;;4.07;0.88;;;;;;;;;;5017655;28;20029;-52
2022/06/14 10:13:51;;;;;;;4.97;1.05;;;;;;;;;;5029767;28;20033;-55
2022/06/14 10:16:26;;;;;;;5.78;1.02;;;;;;;;;;5020252;28;20032;-56
2022/06/14 10:19:12;;;;;;;7.28;1.38;;;;;;;;;;5014432;28;20032;-56
2022/06/14 10:21:45;;;;;;;3.60;1.52;;;;;;;;;;5026332;28;20066;-56
2022/06/14 10:24:11;;;;;;;3.30;0.82;;;;;;;;;;5017940;28;20101;-54
2022/06/14 10:29:32;;;;;;;4.78;0.82;;;;;;;;;;5029741;28;20047;-55
2022/06/14 10:32:06;;;;;;;6.13;1.02;;;;;;;;;;5022775;28;20029;-55
2022/06/14 10:35:01;;;;;;;5.15;1.02;;;;;;;;;;5017936;28;20022;-55
2022/06/14 10:37:46;;;;;;;6.43;1.10;;;;;;;;;;5015541;28;20044;-56
2022/06/14 10:40:24;;;;;;;4.05;0.93;;;;;;;;;;5030169;28;20028;-56
2022/06/14 10:43:11;;;;;;;3.33;1.00;;;;;;;;;;5025651;28;20031;-55
2022/06/14 10:45:39;;;;;;;4.35;1.27;;;;;;;;;;5025143;28;20038;-55
2022/06/14 10:48:15;;;;;;;5.40;1.00;;;;;;;;;;5026525;28;20032;-54
2022/06/14 10:50:50;;;;;;;5.60;1.13;;;;;;;;;;5023312;28;20509;-54
2022/06/14 10:53:24;;;;;;;6.25;0.93;;;;;;;;;;5013188;28;20091;-55
2022/06/14 10:56:09;;;;;;;6.78;1.13;;;;;;;;;;5016483;28;20390;-54
2022/06/14 10:58:53;;;;;;;3.58;0.70;;;;;;;;;;5016823;28;20038;-56
2022/06/14 11:01:32;;;;;;;7.65;1.30;;;;;;;;;;5017434;28;20469;-56
2022/06/14 11:04:18;;;;;;;4.05;0.98;;;;;;;;;;5024114;28;20769;-56
2022/06/14 11:07:04;;;;;;;9.23;1.15;;;;;;;;;;5026140;28;20469;-55
2022/06/14 11:09:37;;;;;;;3.00;0.80;;;;;;;;;;5020447;28;20036;-54
2022/06/14 11:12:12;;;;;;;5.53;1.05;;;;;;;;;;5017534;28;20030;-54
2022/06/14 11:14:57;;;;;;;3.38;0.90;;;;;;;;;;5025648;28;20025;-55
2022/06/14 11:17:28;;;;;;;9.35;1.23;;;;;;;;;;5026575;28;20029;-55
2022/06/14 11:19:54;;;;;;;5.30;1.02;;;;;;;;;;5029285;28;20025;-56
2022/06/14 11:22:36;;;;;;;4.53;1.10;;;;;;;;;;5030187;28;20778;-55
2022/06/14 11:25:15;;;;;;;3.63;0.95;;;;;;;;;;5031024;28;20022;-55
2022/06/14 11:27:41;;;;;;;4.40;1.20;;;;;;;;;;5030354;28;20104;-55
2022/06/14 11:30:07;;;;;;;8.52;2.15;;;;;;;;;;5028665;28;20025;-54
2022/06/14 11:32:44;;;;;;;6.00;1.00;;;;;;;;;;5027790;28;20045;-56
2022/06/14 11:35:17;;;;;;;4.75;0.98;;;;;;;;;;5017602;28;20033;-55
2022/06/14 11:37:56;;;;;;;4.03;1.00;;;;;;;;;;5024915;28;20021;-53
2022/06/14 11:40:33;;;;;;;3.65;0.65;;;;;;;;;;5024175;28;20444;-56
2022/06/14 11:43:18;;;;;;;3.55;0.60;;;;;;;;;;5021354;28;20025;-53
2022/06/14 11:45:50;;;;;;;2.70;0.82;;;;;;;;;;5020718;28;20026;-54
2022/06/14 11:48:20;;;;;;;3.85;1.00;;;;;;;;;;5022107;28;20056;-55
2022/06/14 11:50:50;;;;;;;6.15;1.20;;;;;;;;;;5027719;28;20030;-55
2022/06/14 11:53:16;;;;;;;3.92;1.17;;;;;;;;;;5028765;28;20040;-55
2022/06/14 11:55:51;;;;;;;3.30;0.90;;;;;;;;;;5024835;28;20053;-56
2022/06/14 11:58:35;;;;;;;3.55;0.60;;;;;;;;;;5024486;28;20033;-56
2022/06/14 12:01:01;;;;;;;4.50;1.10;;;;;;;;;;5031184;28;20029;-55
2022/06/14 12:03:46;;;;;;;5.47;1.10;;;;;;;;;;5022033;28;20082;-55
2022/06/14 12:06:31;;;;;;;3.97;1.08;;;;;;;;;;5029322;28;20022;-54
2022/06/14 12:09:02;;;;;;;9.05;1.10;;;;;;;;;;5025215;28;20107;-57
2022/06/14 12:11:35;;;;;;;4.10;0.88;;;;;;;;;;5029699;28;20028;-55
2022/06/14 12:14:20;;;;;;;4.30;1.13;;;;;;;;;;5029175;28;20026;-53
2022/06/14 12:17:02;;;;;;;2.20;0.93;;;;;;;;;;5032193;28;20033;-55
2022/06/14 12:19:33;;;;;;;6.45;1.15;;;;;;;;;;5031566;28;20033;-55
2022/06/14 12:22:26;;;;;;;6.93;0.93;;;;;;;;;;5030496;28;20029;-56
2022/06/14 12:27:40;;;;;;;3.97;1.00;;;;;;;;;;5031337;28;20099;-55
2022/06/14 12:30:06;;;;;;;2.47;0.85;;;;;;;;;;5028739;28;20109;-55
2022/06/14 12:32:39;;;;;;;5.35;0.68;;;;;;;;;;5012601;28;20034;-55
2022/06/14 12:35:16;;;;;;;4.60;1.38;;;;;;;;;;5034155;28;20042;-56
2022/06/14 12:37:53;;;;;;;3.97;1.00;;;;;;;;;;5033057;28;20033;-54
2022/06/14 12:40:38;;;;;;;5.60;0.80;;;;;;;;;;5032730;28;20038;-55
2022/06/14 12:43:08;;;;;;;2.97;0.80;;;;;;;;;;5033462;28;20029;-56
2022/06/14 12:45:39;;;;;;;3.90;1.05;;;;;;;;;;5036560;28;20040;-55
2022/06/14 12:48:12;;;;;;;4.10;0.80;;;;;;;;;;5030409;28;20429;-55
2022/06/14 12:50:50;;;;;;;2.88;0.80;;;;;;;;;;5030060;28;20171;-54
2022/06/14 12:53:27;;;;;;;4.63;0.80;;;;;;;;;;5029191;28;20235;-56
2022/06/14 12:55:56;;;;;;;3.10;0.82;;;;;;;;;;5028700;28;20050;-56
2022/06/14 12:58:28;;;;;;;3.60;0.90;;;;;;;;;;5014452;28;20026;-54
2022/06/14 13:01:18;;;;;;;5.47;0.93;;;;;;;;;;5020705;28;20053;-54
2022/06/14 13:03:48;;;;;;;3.38;0.75;;;;;;;;;;5031358;28;20060;-56
2022/06/14 13:06:23;;;;;;;3.58;0.80;;;;;;;;;;5031984;28;20771;-55
2022/06/14 13:08:58;;;;;;;3.58;0.77;;;;;;;;;;5028594;28;20044;-55
2022/06/14 13:11:34;;;;;;;3.70;0.90;;;;;;;;;;5032051;28;20056;-55
2022/06/14 13:14:06;;;;;;;4.32;0.57;;;;;;;;;;5030380;28;20022;-55
2022/06/14 13:16:50;;;;;;;4.07;0.80;;;;;;;;;;5028232;28;20033;-56
2022/06/14 13:19:22;;;;;;;3.47;0.95;;;;;;;;;;5027672;28;20111;-55
2022/06/14 13:22:14;;;;;;;3.45;0.60;;;;;;;;;;5045889;28;20025;-56
2022/06/14 13:25:00;;;;;;;2.88;0.73;;;;;;;;;;5033398;28;20179;-57
2022/06/14 13:27:25;;;;;;;3.05;0.57;;;;;;;;;;5038806;28;20032;-57
2022/06/14 13:29:59;;;;;;;1.60;0.60;;;;;;;;;;5029143;28;20037;-55
2022/06/14 13:32:38;;;;;;;1.95;0.50;;;;;;;;;;5030351;28;20547;-55
2022/06/14 13:35:15;;;;;;;4.88;0.70;;;;;;;;;;5029927;28;20033;-55
2022/06/14 13:37:55;;;;;;;3.55;0.98;;;;;;;;;;5026540;28;20022;-53
2022/06/14 13:40:23;;;;;;;2.75;0.40;;;;;;;;;;5030587;28;20026;-55
2022/06/14 13:43:21;;;;;;;2.92;0.70;;;;;;;;;;5032342;28;20029;-54
2022/06/14 13:46:02;;;;;;;2.15;0.40;;;;;;;;;;5009654;28;20047;-54
2022/06/14 13:48:38;;;;;;;2.97;0.50;;;;;;;;;;5032219;28;20105;-55
2022/06/14 13:51:15;;;;;;;4.30;0.68;;;;;;;;;;5014838;28;20588;-55
2022/06/14 13:53:59;;;;;;;2.78;0.50;;;;;;;;;;5025784;28;20028;-54
2022/06/14 13:56:29;;;;;;;3.92;0.57;;;;;;;;;;5020775;28;20022;-57
2022/06/14 13:59:13;;;;;;;5.43;0.75;;;;;;;;;;5024296;28;20065;-55
2022/06/14 14:01:43;;;;;;;1.80;0.45;;;;;;;;;;5018957;28;20045;-53
2022/06/14 14:04:28;;;;;;;3.42;0.70;;;;;;;;;;5031838;28;20535;-54
2022/06/14 14:07:15;;;;;;;3.08;0.70;;;;;;;;;;5030366;28;20029;-54
2022/06/14 14:10:00;;;;;;;4.10;0.52;;;;;;;;;;5025338;28;20469;-55
2022/06/14 14:12:31;;;;;;;2.05;0.70;;;;;;;;;;5022028;28;20083;-56
2022/06/14 14:14:56;;;;;;;3.78;0.88;;;;;;;;;;5017667;28;20037;-53
2022/06/14 14:17:41;;;;;;;1.70;0.43;;;;;;;;;;5020992;28;20439;-57
2022/06/14 14:20:19;;;;;;;3.42;0.50;;;;;;;;;;5029954;28;20021;-56
2022/06/14 14:22:51;;;;;;;5.10;1.50;;;;;;;;;;5026488;28;20593;-54
2022/06/14 14:25:35;;;;;;;3.67;0.40;;;;;;;;;;5024330;28;20039;-55
2022/06/14 14:28:09;;;;;;;2.40;0.68;;;;;;;;;;5026309;28;20504;-54
2022/06/14 14:30:54;;;;;;;2.88;0.60;;;;;;;;;;5020489;28;20029;-55
2022/06/14 14:33:39;;;;;;;4.22;0.75;;;;;;;;;;5022237;28;20034;-53
2022/06/14 14:36:10;;;;;;;2.00;0.60;;;;;;;;;;5027963;28;20501;-55
2022/06/14 14:38:39;;;;;;;2.08;0.50;;;;;;;;;;5022879;28;20124;-55
2022/06/14 14:43:53;;;;;;;3.20;0.50;;;;;;;;;;5023060;28;20052;-53
2022/06/14 14:46:23;;;;;;;1.73;0.63;;;;;;;;;;5021254;28;20021;-55
2022/06/14 14:48:54;;;;;;;3.97;0.65;;;;;;;;;;5025319;28;20026;-57
2022/06/14 14:51:20;;;;;;;4.38;0.65;;;;;;;;;;5023307;28;20434;-56
2022/06/14 14:53:56;;;;;;;1.92;0.50;;;;;;;;;;5023493;28;20057;-56
2022/06/14 14:56:27;;;;;;;2.55;0.80;;;;;;;;;;5019453;28;20040;-56
2022/06/14 14:58:58;;;;;;;2.22;0.73;;;;;;;;;;5016265;28;20030;-55
2022/06/14 15:07:22;;;;;;;4.97;0.70;;;;;;;;;;5022853;28;20064;-56
2022/06/14 15:10:15;;;;;;;2.90;0.68;;;;;;;;;;5025343;28;20092;-55
2022/06/14 15:12:52;;;;;;;4.50;0.63;;;;;;;;;;5020891;28;20509;-55
2022/06/14 15:15:18;;;;;;;6.50;0.77;;;;;;;;;;5025076;28;20025;-57
2022/06/14 15:20:30;;;;;;;4.55;0.95;;;;;;;;;;5019822;28;20044;-54
2022/06/14 15:22:57;;;;;;;4.07;0.60;;;;;;;;;;5025581;28;20033;-55
2022/06/14 15:25:25;;;;;;;3.97;0.88;;;;;;;;;;5025959;28;20176;-55
2022/06/14 15:28:10;;;;;;;3.83;0.55;;;;;;;;;;5018949;28;20061;-55
2022/06/14 15:30:36;;;;;;;4.32;0.90;;;;;;;;;;5022052;28;20485;-56
2022/06/14 15:33:21;;;;;;;5.38;0.68;;;;;;;;;;5017400;28;20036;-55
2022/06/14 15:35:52;;;;;;;3.35;0.63;;;;;;;;;;5028367;28;20435;-57
2022/06/14 15:38:21;;;;;;;4.15;0.60;;;;;;;;;;5020829;28;20033;-56
2022/06/14 15:40:48;;;;;;;2.50;0.52;;;;;;;;;;5016647;28;20030;-56
2022/06/14 15:43:21;;;;;;;2.20;0.47;;;;;;;;;;5026074;28;20036;-57
2022/06/14 15:45:51;;;;;;;2.83;0.70;;;;;;;;;;5024346;28;20022;-56
2022/06/14 15:48:22;;;;;;;2.63;0.50;;;;;;;;;;5021129;28;20556;-57
2022/06/14 15:50:53;;;;;;;2.55;0.63;;;;;;;;;;5024692;28;20099;-57
2022/06/14 15:53:21;;;;;;;2.28;0.73;;;;;;;;;;5023354;28;20029;-55